sensor_id;sensor_type;location;lat;lon;timestamp;pressure;altitude;pressure_sealevel;temperature;humidity
13422;BME280;6782;55.904;13.396;2023-07-22T00:00:47;100332.94;;;14.89;100.00
13422;BME280;6782;55.904;13.396;2023-07-22T00:03:34;100326.03;;;14.85;100.00
13422;BME280;6782;55.904;13.396;2023-07-22T00:06:22;100334.50;;;14.93;100.00
13422;BME280;6782;55.904;13.396;2023-07-22T00:09:09;100329.03;;;14.96;100.00
13422;BME280;6782;55.904;13.396;2023-07-22T00:11:58;100332.34;;;15.01;100.00
13422;BME280;6782;55.904;13.396;2023-07-22T00:14:45;100319.97;;;15.00;100.00
13422;BME280;6782;55.904;13.396;2023-07-22T00:17:33;100327.06;;;15.18;100.00
13422;BME280;6782;55.904;13.396;2023-07-22T00:20:21;100324.13;;;15.24;100.00
13422;BME280;6782;55.904;13.396;2023-07-22T00:23:09;100308.03;;;15.27;100.00
13422;BME280;6782;55.904;13.396;2023-07-22T00:25:57;100302.72;;;15.27;100.00
13422;BME280;6782;55.904;13.396;2023-07-22T00:28:49;100286.28;;;15.19;100.00
13422;BME280;6782;55.904;13.396;2023-07-22T00:31:36;100282.53;;;15.23;100.00
13422;BME280;6782;55.904;13.396;2023-07-22T00:34:24;100290.06;;;15.32;100.00
13422;BME280;6782;55.904;13.396;2023-07-22T00:37:13;100285.91;;;15.27;100.00
13422;BME280;6782;55.904;13.396;2023-07-22T00:40:03;100273.38;;;15.12;100.00
13422;BME280;6782;55.904;13.396;2023-07-22T00:42:52;100275.00;;;14.97;100.00
13422;BME280;6782;55.904;13.396;2023-07-22T00:45:40;100288.47;;;15.11;100.00
13422;BME280;6782;55.904;13.396;2023-07-22T00:48:29;100280.38;;;14.95;100.00
13422;BME280;6782;55.904;13.396;2023-07-22T00:51:17;100282.69;;;14.84;100.00
13422;BME280;6782;55.904;13.396;2023-07-22T00:54:08;100297.47;;;14.90;100.00
13422;BME280;6782;55.904;13.396;2023-07-22T00:56:56;100296.19;;;14.80;100.00
13422;BME280;6782;55.904;13.396;2023-07-22T00:59:44;100310.09;;;14.85;100.00
13422;BME280;6782;55.904;13.396;2023-07-22T01:02:34;100303.66;;;14.72;100.00
13422;BME280;6782;55.904;13.396;2023-07-22T01:05:21;100320.66;;;14.68;100.00
13422;BME280;6782;55.904;13.396;2023-07-22T01:08:08;100324.59;;;14.59;100.00
13422;BME280;6782;55.904;13.396;2023-07-22T01:10:56;100342.47;;;14.56;100.00
13422;BME280;6782;55.904;13.396;2023-07-22T01:13:43;100353.75;;;14.61;100.00
13422;BME280;6782;55.904;13.396;2023-07-22T01:16:30;100375.63;;;14.66;100.00
13422;BME280;6782;55.904;13.396;2023-07-22T01:19:24;100393.59;;;14.59;100.00
13422;BME280;6782;55.904;13.396;2023-07-22T01:22:16;100407.72;;;14.60;100.00
13422;BME280;6782;55.904;13.396;2023-07-22T01:25:08;100424.31;;;14.65;100.00
13422;BME280;6782;55.904;13.396;2023-07-22T01:27:59;100466.66;;;14.68;100.00
13422;BME280;6782;55.904;13.396;2023-07-22T01:30:47;100484.50;;;14.64;100.00
13422;BME280;6782;55.904;13.396;2023-07-22T01:33:34;100489.34;;;14.55;100.00
13422;BME280;6782;55.904;13.396;2023-07-22T01:36:23;100505.81;;;14.43;100.00
13422;BME280;6782;55.904;13.396;2023-07-22T01:39:11;100527.28;;;14.57;100.00
13422;BME280;6782;55.904;13.396;2023-07-22T01:42:01;100535.31;;;14.55;100.00
13422;BME280;6782;55.904;13.396;2023-07-22T01:44:53;100548.13;;;14.46;100.00
13422;BME280;6782;55.904;13.396;2023-07-22T01:47:42;100572.81;;;14.68;100.00
13422;BME280;6782;55.904;13.396;2023-07-22T01:50:32;100577.50;;;14.61;100.00
13422;BME280;6782;55.904;13.396;2023-07-22T01:53:24;100594.31;;;14.62;100.00
13422;BME280;6782;55.904;13.396;2023-07-22T01:56:20;100608.38;;;14.64;100.00
13422;BME280;6782;55.904;13.396;2023-07-22T01:59:08;100606.13;;;14.55;100.00
13422;BME280;6782;55.904;13.396;2023-07-22T02:01:56;100616.47;;;14.61;100.00
13422;BME280;6782;55.904;13.396;2023-07-22T02:04:47;100621.16;;;14.76;100.00
13422;BME280;6782;55.904;13.396;2023-07-22T02:07:43;100637.28;;;14.71;100.00
13422;BME280;6782;55.904;13.396;2023-07-22T02:10:31;100640.50;;;14.58;100.00
13422;BME280;6782;55.904;13.396;2023-07-22T02:13:21;100649.25;;;14.60;100.00
13422;BME280;6782;55.904;13.396;2023-07-22T02:16:12;100665.41;;;14.54;100.00
13422;BME280;6782;55.904;13.396;2023-07-22T02:19:03;100666.41;;;14.51;100.00
13422;BME280;6782;55.904;13.396;2023-07-22T02:21:50;100672.69;;;14.49;100.00
13422;BME280;6782;55.904;13.396;2023-07-22T02:24:39;100678.63;;;14.33;100.00
13422;BME280;6782;55.904;13.396;2023-07-22T02:27:27;100689.25;;;14.33;100.00
13422;BME280;6782;55.904;13.396;2023-07-22T02:30:15;100694.44;;;14.36;100.00
13422;BME280;6782;55.904;13.396;2023-07-22T02:33:05;100698.13;;;14.32;100.00
13422;BME280;6782;55.904;13.396;2023-07-22T02:35:52;100706.03;;;14.34;100.00
13422;BME280;6782;55.904;13.396;2023-07-22T02:38:42;100717.69;;;14.28;100.00
13422;BME280;6782;55.904;13.396;2023-07-22T02:41:30;100712.41;;;14.28;100.00
13422;BME280;6782;55.904;13.396;2023-07-22T02:44:18;100719.66;;;14.23;100.00
13422;BME280;6782;55.904;13.396;2023-07-22T02:47:05;100725.09;;;14.20;100.00
13422;BME280;6782;55.904;13.396;2023-07-22T02:49:54;100721.75;;;14.15;100.00
13422;BME280;6782;55.904;13.396;2023-07-22T02:52:43;100726.72;;;14.24;100.00
13422;BME280;6782;55.904;13.396;2023-07-22T02:55:31;100725.34;;;14.14;100.00
13422;BME280;6782;55.904;13.396;2023-07-22T02:58:19;100733.72;;;14.25;100.00
13422;BME280;6782;55.904;13.396;2023-07-22T03:01:09;100734.00;;;14.19;100.00
13422;BME280;6782;55.904;13.396;2023-07-22T03:03:58;100744.94;;;14.33;100.00
13422;BME280;6782;55.904;13.396;2023-07-22T03:06:46;100737.22;;;14.27;100.00
13422;BME280;6782;55.904;13.396;2023-07-22T03:09:35;100734.56;;;14.27;100.00
13422;BME280;6782;55.904;13.396;2023-07-22T03:12:23;100736.38;;;14.25;100.00
13422;BME280;6782;55.904;13.396;2023-07-22T03:15:11;100748.53;;;14.32;100.00
13422;BME280;6782;55.904;13.396;2023-07-22T03:18:01;100732.25;;;14.18;100.00
13422;BME280;6782;55.904;13.396;2023-07-22T03:20:50;100726.94;;;14.18;100.00
13422;BME280;6782;55.904;13.396;2023-07-22T03:23:41;100734.09;;;14.16;100.00
13422;BME280;6782;55.904;13.396;2023-07-22T03:26:29;100741.00;;;14.20;100.00
13422;BME280;6782;55.904;13.396;2023-07-22T03:29:17;100728.22;;;14.08;100.00
13422;BME280;6782;55.904;13.396;2023-07-22T03:32:05;100734.97;;;14.17;100.00
13422;BME280;6782;55.904;13.396;2023-07-22T03:34:55;100708.06;;;14.04;100.00
13422;BME280;6782;55.904;13.396;2023-07-22T03:37:44;100700.78;;;14.09;100.00
13422;BME280;6782;55.904;13.396;2023-07-22T03:40:34;100714.63;;;14.17;100.00
13422;BME280;6782;55.904;13.396;2023-07-22T03:43:23;100704.06;;;14.16;100.00
13422;BME280;6782;55.904;13.396;2023-07-22T03:46:11;100707.34;;;14.22;100.00
13422;BME280;6782;55.904;13.396;2023-07-22T03:48:58;100704.84;;;14.18;100.00
13422;BME280;6782;55.904;13.396;2023-07-22T03:51:46;100710.69;;;14.27;100.00
13422;BME280;6782;55.904;13.396;2023-07-22T03:54:34;100714.38;;;14.23;100.00
13422;BME280;6782;55.904;13.396;2023-07-22T03:57:32;100717.97;;;14.22;100.00
13422;BME280;6782;55.904;13.396;2023-07-22T04:00:20;100718.94;;;14.20;100.00
13422;BME280;6782;55.904;13.396;2023-07-22T04:03:09;100735.97;;;14.37;100.00
13422;BME280;6782;55.904;13.396;2023-07-22T04:05:57;100735.03;;;14.38;100.00
13422;BME280;6782;55.904;13.396;2023-07-22T04:08:44;100733.44;;;14.34;100.00
13422;BME280;6782;55.904;13.396;2023-07-22T04:11:31;100738.50;;;14.40;100.00
13422;BME280;6782;55.904;13.396;2023-07-22T04:14:20;100735.16;;;14.57;100.00
13422;BME280;6782;55.904;13.396;2023-07-22T04:17:07;100749.50;;;14.75;100.00
13422;BME280;6782;55.904;13.396;2023-07-22T04:19:54;100739.94;;;14.71;100.00
13422;BME280;6782;55.904;13.396;2023-07-22T04:22:43;100741.84;;;14.89;100.00
13422;BME280;6782;55.904;13.396;2023-07-22T04:25:30;100736.38;;;14.92;100.00
13422;BME280;6782;55.904;13.396;2023-07-22T04:28:18;100734.94;;;15.05;100.00
13422;BME280;6782;55.904;13.396;2023-07-22T04:31:06;100733.59;;;15.37;100.00
13422;BME280;6782;55.904;13.396;2023-07-22T04:33:54;100723.97;;;15.14;100.00
13422;BME280;6782;55.904;13.396;2023-07-22T04:36:43;100723.84;;;15.37;100.00
13422;BME280;6782;55.904;13.396;2023-07-22T04:39:30;100721.75;;;15.45;100.00
13422;BME280;6782;55.904;13.396;2023-07-22T04:42:17;100719.94;;;15.46;100.00
13422;BME280;6782;55.904;13.396;2023-07-22T04:45:06;100695.53;;;15.16;100.00
13422;BME280;6782;55.904;13.396;2023-07-22T04:48:01;100682.91;;;15.01;100.00
13422;BME280;6782;55.904;13.396;2023-07-22T04:50:52;100680.56;;;14.93;100.00
13422;BME280;6782;55.904;13.396;2023-07-22T04:53:40;100664.66;;;14.72;100.00
13422;BME280;6782;55.904;13.396;2023-07-22T04:56:35;100672.81;;;14.67;100.00
13422;BME280;6782;55.904;13.396;2023-07-22T04:59:24;100682.56;;;14.67;100.00
13422;BME280;6782;55.904;13.396;2023-07-22T05:02:12;100695.16;;;14.62;100.00
13422;BME280;6782;55.904;13.396;2023-07-22T05:05:03;100705.53;;;14.68;100.00
13422;BME280;6782;55.904;13.396;2023-07-22T05:07:50;100721.22;;;14.74;100.00
13422;BME280;6782;55.904;13.396;2023-07-22T05:10:39;100727.06;;;14.82;100.00
13422;BME280;6782;55.904;13.396;2023-07-22T05:13:27;100729.59;;;14.85;100.00
13422;BME280;6782;55.904;13.396;2023-07-22T05:16:15;100747.75;;;15.17;100.00
13422;BME280;6782;55.904;13.396;2023-07-22T05:19:03;100762.72;;;15.18;100.00
13422;BME280;6782;55.904;13.396;2023-07-22T05:21:56;100776.13;;;15.37;100.00
13422;BME280;6782;55.904;13.396;2023-07-22T05:24:46;100779.16;;;15.49;100.00
13422;BME280;6782;55.904;13.396;2023-07-22T05:27:39;100787.00;;;15.52;100.00
13422;BME280;6782;55.904;13.396;2023-07-22T05:30:30;100798.59;;;15.90;100.00
13422;BME280;6782;55.904;13.396;2023-07-22T05:33:17;100808.38;;;16.10;100.00
13422;BME280;6782;55.904;13.396;2023-07-22T05:36:05;100800.78;;;16.01;100.00
13422;BME280;6782;55.904;13.396;2023-07-22T05:38:55;100792.38;;;15.91;100.00
13422;BME280;6782;55.904;13.396;2023-07-22T05:41:45;100789.75;;;15.90;100.00
13422;BME280;6782;55.904;13.396;2023-07-22T05:44:34;100775.22;;;15.58;100.00
13422;BME280;6782;55.904;13.396;2023-07-22T05:47:22;100778.00;;;15.75;100.00
13422;BME280;6782;55.904;13.396;2023-07-22T05:50:10;100788.97;;;15.88;100.00
13422;BME280;6782;55.904;13.396;2023-07-22T05:52:58;100780.47;;;15.80;100.00
13422;BME280;6782;55.904;13.396;2023-07-22T05:55:47;100768.91;;;15.60;100.00
13422;BME280;6782;55.904;13.396;2023-07-22T05:58:35;100782.34;;;15.78;100.00
13422;BME280;6782;55.904;13.396;2023-07-22T06:01:25;100776.78;;;15.63;100.00
13422;BME280;6782;55.904;13.396;2023-07-22T06:04:15;100798.47;;;15.93;100.00
13422;BME280;6782;55.904;13.396;2023-07-22T06:07:03;100807.81;;;16.22;100.00
13422;BME280;6782;55.904;13.396;2023-07-22T06:09:51;100802.91;;;16.13;100.00
13422;BME280;6782;55.904;13.396;2023-07-22T06:12:40;100813.22;;;16.39;100.00
13422;BME280;6782;55.904;13.396;2023-07-22T06:15:28;100802.88;;;16.33;100.00
13422;BME280;6782;55.904;13.396;2023-07-22T06:18:16;100813.28;;;16.76;100.00
13422;BME280;6782;55.904;13.396;2023-07-22T06:21:04;100802.44;;;16.79;100.00
13422;BME280;6782;55.904;13.396;2023-07-22T06:23:51;100780.59;;;16.36;100.00
13422;BME280;6782;55.904;13.396;2023-07-22T06:26:40;100772.34;;;16.21;100.00
13422;BME280;6782;55.904;13.396;2023-07-22T06:29:30;100754.44;;;16.06;100.00
13422;BME280;6782;55.904;13.396;2023-07-22T06:32:18;100744.16;;;15.99;100.00
13422;BME280;6782;55.904;13.396;2023-07-22T06:35:08;100739.75;;;15.98;100.00
13422;BME280;6782;55.904;13.396;2023-07-22T06:37:56;100746.63;;;16.22;100.00
13422;BME280;6782;55.904;13.396;2023-07-22T06:40:46;100744.16;;;16.36;100.00
13422;BME280;6782;55.904;13.396;2023-07-22T06:43:33;100738.78;;;16.56;100.00
13422;BME280;6782;55.904;13.396;2023-07-22T06:46:23;100738.69;;;16.76;100.00
13422;BME280;6782;55.904;13.396;2023-07-22T06:49:11;100735.19;;;16.93;100.00
13422;BME280;6782;55.904;13.396;2023-07-22T06:51:59;100729.50;;;17.52;100.00
13422;BME280;6782;55.904;13.396;2023-07-22T06:54:47;100697.44;;;17.19;100.00
13422;BME280;6782;55.904;13.396;2023-07-22T06:57:34;100668.53;;;16.95;100.00
13422;BME280;6782;55.904;13.396;2023-07-22T07:00:25;100621.22;;;16.28;100.00
13422;BME280;6782;55.904;13.396;2023-07-22T07:03:15;100600.50;;;15.99;100.00
13422;BME280;6782;55.904;13.396;2023-07-22T07:06:03;100585.41;;;15.81;100.00
13422;BME280;6782;55.904;13.396;2023-07-22T07:08:53;100580.63;;;16.06;100.00
13422;BME280;6782;55.904;13.396;2023-07-22T07:11:41;100591.34;;;16.59;100.00
13422;BME280;6782;55.904;13.396;2023-07-22T07:14:29;100611.84;;;16.57;100.00
13422;BME280;6782;55.904;13.396;2023-07-22T07:17:17;100586.72;;;16.62;100.00
13422;BME280;6782;55.904;13.396;2023-07-22T07:20:08;100551.63;;;16.54;100.00
13422;BME280;6782;55.904;13.396;2023-07-22T07:22:55;100517.75;;;16.22;100.00
13422;BME280;6782;55.904;13.396;2023-07-22T07:25:43;100498.50;;;16.17;100.00
13422;BME280;6782;55.904;13.396;2023-07-22T07:28:31;100491.06;;;16.06;100.00
13422;BME280;6782;55.904;13.396;2023-07-22T07:31:18;100461.41;;;15.61;100.00
13422;BME280;6782;55.904;13.396;2023-07-22T07:34:05;100455.38;;;15.57;100.00
13422;BME280;6782;55.904;13.396;2023-07-22T07:36:54;100460.97;;;15.51;100.00
13422;BME280;6782;55.904;13.396;2023-07-22T07:39:42;100471.41;;;15.92;100.00
13422;BME280;6782;55.904;13.396;2023-07-22T07:42:29;100472.03;;;16.31;100.00
13422;BME280;6782;55.904;13.396;2023-07-22T07:45:16;100457.66;;;16.52;100.00
13422;BME280;6782;55.904;13.396;2023-07-22T07:48:04;100457.00;;;16.81;100.00
13422;BME280;6782;55.904;13.396;2023-07-22T07:50:52;100442.94;;;17.11;100.00
13422;BME280;6782;55.904;13.396;2023-07-22T07:53:41;100394.91;;;16.97;100.00
13422;BME280;6782;55.904;13.396;2023-07-22T07:56:29;100374.06;;;17.50;100.00
13422;BME280;6782;55.904;13.396;2023-07-22T07:59:17;100318.56;;;17.27;100.00
13422;BME280;6782;55.904;13.396;2023-07-22T08:02:05;100292.97;;;17.09;100.00
13422;BME280;6782;55.904;13.396;2023-07-22T08:04:55;100271.03;;;17.04;100.00
13422;BME280;6782;55.904;13.396;2023-07-22T08:07:42;100282.41;;;17.52;100.00
13422;BME280;6782;55.904;13.396;2023-07-22T08:10:31;100230.91;;;17.07;100.00
13422;BME280;6782;55.904;13.396;2023-07-22T08:13:18;100197.22;;;16.60;100.00
13422;BME280;6782;55.904;13.396;2023-07-22T08:16:07;100181.66;;;16.68;100.00
13422;BME280;6782;55.904;13.396;2023-07-22T08:18:55;100192.88;;;17.19;100.00
13422;BME280;6782;55.904;13.396;2023-07-22T08:21:42;100156.13;;;17.10;100.00
13422;BME280;6782;55.904;13.396;2023-07-22T08:24:30;100138.97;;;17.00;100.00
13422;BME280;6782;55.904;13.396;2023-07-22T08:27:20;100124.69;;;17.01;100.00
13422;BME280;6782;55.904;13.396;2023-07-22T08:30:09;100120.41;;;17.42;100.00
13422;BME280;6782;55.904;13.396;2023-07-22T08:32:57;100083.47;;;17.64;100.00
13422;BME280;6782;55.904;13.396;2023-07-22T08:35:44;100102.53;;;18.13;100.00
13422;BME280;6782;55.904;13.396;2023-07-22T08:38:33;100071.66;;;18.23;100.00
13422;BME280;6782;55.904;13.396;2023-07-22T08:41:21;99932.63;;;17.60;100.00
13422;BME280;6782;55.904;13.396;2023-07-22T08:44:13;99920.78;;;17.78;100.00
13422;BME280;6782;55.904;13.396;2023-07-22T08:47:02;99890.38;;;17.81;100.00
13422;BME280;6782;55.904;13.396;2023-07-22T08:49:52;99870.28;;;17.75;100.00
13422;BME280;6782;55.904;13.396;2023-07-22T08:52:40;99925.47;;;18.53;100.00
13422;BME280;6782;55.904;13.396;2023-07-22T08:55:28;99883.78;;;18.76;100.00
13422;BME280;6782;55.904;13.396;2023-07-22T08:58:17;99735.31;;;18.61;100.00
13422;BME280;6782;55.904;13.396;2023-07-22T09:01:07;99681.44;;;18.05;100.00
13422;BME280;6782;55.904;13.396;2023-07-22T09:03:58;99575.66;;;17.43;100.00
13422;BME280;6782;55.904;13.396;2023-07-22T09:06:46;99541.44;;;17.49;100.00
13422;BME280;6782;55.904;13.396;2023-07-22T09:09:34;99647.25;;;17.74;100.00
13422;BME280;6782;55.904;13.396;2023-07-22T09:12:21;99577.38;;;18.05;100.00
13422;BME280;6782;55.904;13.396;2023-07-22T09:15:12;99570.19;;;18.19;100.00
13422;BME280;6782;55.904;13.396;2023-07-22T09:18:01;99475.50;;;17.64;100.00
13422;BME280;6782;55.904;13.396;2023-07-22T09:20:48;99728.94;;;18.26;100.00
13422;BME280;6782;55.904;13.396;2023-07-22T09:23:38;99737.72;;;19.00;100.00
13422;BME280;6782;55.904;13.396;2023-07-22T09:26:26;99527.09;;;18.48;100.00
13422;BME280;6782;55.904;13.396;2023-07-22T09:29:13;99549.69;;;18.90;100.00
13422;BME280;6782;55.904;13.396;2023-07-22T09:32:01;99451.31;;;18.95;100.00
13422;BME280;6782;55.904;13.396;2023-07-22T09:34:55;99352.69;;;18.48;100.00
13422;BME280;6782;55.904;13.396;2023-07-22T09:37:43;99392.31;;;18.30;100.00
13422;BME280;6782;55.904;13.396;2023-07-22T09:40:30;99380.88;;;18.63;100.00
13422;BME280;6782;55.904;13.396;2023-07-22T09:43:18;99085.00;;;18.46;100.00
13422;BME280;6782;55.904;13.396;2023-07-22T09:46:09;99012.16;;;18.55;100.00
13422;BME280;6782;55.904;13.396;2023-07-22T09:48:56;98912.44;;;18.45;100.00
13422;BME280;6782;55.904;13.396;2023-07-22T09:51:45;98786.25;;;18.33;100.00
13422;BME280;6782;55.904;13.396;2023-07-22T09:54:33;98939.69;;;18.80;100.00
13422;BME280;6782;55.904;13.396;2023-07-22T09:57:21;99036.31;;;19.47;100.00
13422;BME280;6782;55.904;13.396;2023-07-22T10:00:10;98972.53;;;19.82;100.00
13422;BME280;6782;55.904;13.396;2023-07-22T10:03:01;98745.31;;;19.62;100.00
13422;BME280;6782;55.904;13.396;2023-07-22T10:05:50;98829.34;;;19.88;100.00
13422;BME280;6782;55.904;13.396;2023-07-22T10:08:39;98807.13;;;19.87;100.00
13422;BME280;6782;55.904;13.396;2023-07-22T10:11:30;98835.56;;;20.08;100.00
13422;BME280;6782;55.904;13.396;2023-07-22T10:14:18;98882.44;;;20.21;100.00
13422;BME280;6782;55.904;13.396;2023-07-22T10:17:08;98608.00;;;19.15;100.00
13422;BME280;6782;55.904;13.396;2023-07-22T10:19:59;98856.91;;;19.10;100.00
13422;BME280;6782;55.904;13.396;2023-07-22T10:22:51;99095.25;;;19.66;100.00
13422;BME280;6782;55.904;13.396;2023-07-22T10:25:44;98567.34;;;18.54;100.00
13422;BME280;6782;55.904;13.396;2023-07-22T10:28:37;98761.19;;;18.85;100.00
13422;BME280;6782;55.904;13.396;2023-07-22T10:31:30;98799.69;;;19.22;100.00
13422;BME280;6782;55.904;13.396;2023-07-22T10:34:21;98680.78;;;18.88;100.00
13422;BME280;6782;55.904;13.396;2023-07-22T10:37:10;98627.06;;;18.62;100.00
13422;BME280;6782;55.904;13.396;2023-07-22T10:40:01;98647.34;;;18.44;100.00
13422;BME280;6782;55.904;13.396;2023-07-22T10:42:54;98322.50;;;18.18;100.00
13422;BME280;6782;55.904;13.396;2023-07-22T10:45:49;98102.47;;;17.94;100.00
13422;BME280;6782;55.904;13.396;2023-07-22T10:48:38;98175.94;;;18.16;100.00
13422;BME280;6782;55.904;13.396;2023-07-22T10:51:36;98385.81;;;18.44;100.00
13422;BME280;6782;55.904;13.396;2023-07-22T10:54:32;98708.88;;;18.73;100.00
13422;BME280;6782;55.904;13.396;2023-07-22T10:57:23;98915.78;;;18.99;100.00
13422;BME280;6782;55.904;13.396;2023-07-22T11:00:20;98778.22;;;19.62;100.00
13422;BME280;6782;55.904;13.396;2023-07-22T11:03:11;98432.94;;;19.48;100.00
13422;BME280;6782;55.904;13.396;2023-07-22T11:05:59;97873.97;;;18.91;100.00
13422;BME280;6782;55.904;13.396;2023-07-22T11:08:47;97877.97;;;18.87;100.00
13422;BME280;6782;55.904;13.396;2023-07-22T11:11:40;98238.13;;;19.17;100.00
13422;BME280;6782;55.904;13.396;2023-07-22T11:14:29;98264.50;;;19.30;100.00
13422;BME280;6782;55.904;13.396;2023-07-22T11:17:29;98338.16;;;19.42;100.00
13422;BME280;6782;55.904;13.396;2023-07-22T11:20:18;98381.03;;;19.68;100.00
13422;BME280;6782;55.904;13.396;2023-07-22T11:23:10;98486.91;;;19.61;100.00
13422;BME280;6782;55.904;13.396;2023-07-22T11:25:57;98228.03;;;18.66;100.00
13422;BME280;6782;55.904;13.396;2023-07-22T11:28:46;98910.88;;;18.22;100.00
13422;BME280;6782;55.904;13.396;2023-07-22T11:31:35;99793.81;;;18.39;100.00
13422;BME280;6782;55.904;13.396;2023-07-22T11:34:25;99792.34;;;18.22;100.00
13422;BME280;6782;55.904;13.396;2023-07-22T11:37:13;99750.50;;;18.23;100.00
13422;BME280;6782;55.904;13.396;2023-07-22T11:40:00;99823.63;;;18.45;100.00
13422;BME280;6782;55.904;13.396;2023-07-22T11:42:47;99667.41;;;18.52;100.00
13422;BME280;6782;55.904;13.396;2023-07-22T11:45:38;99485.50;;;19.03;100.00
13422;BME280;6782;55.904;13.396;2023-07-22T11:48:25;99010.41;;;19.48;100.00
13422;BME280;6782;55.904;13.396;2023-07-22T11:51:16;98741.59;;;20.01;100.00
13422;BME280;6782;55.904;13.396;2023-07-22T11:54:07;98561.47;;;20.55;100.00
13422;BME280;6782;55.904;13.396;2023-07-22T11:56:55;97967.09;;;20.21;100.00
13422;BME280;6782;55.904;13.396;2023-07-22T11:59:44;98185.47;;;21.07;100.00
13422;BME280;6782;55.904;13.396;2023-07-22T12:02:35;98013.03;;;21.71;100.00
13422;BME280;6782;55.904;13.396;2023-07-22T12:05:22;97930.72;;;21.09;100.00
13422;BME280;6782;55.904;13.396;2023-07-22T12:08:16;98039.13;;;20.40;100.00
13422;BME280;6782;55.904;13.396;2023-07-22T12:11:03;98213.69;;;19.83;100.00
13422;BME280;6782;55.904;13.396;2023-07-22T12:14:05;98398.47;;;19.45;100.00
13422;BME280;6782;55.904;13.396;2023-07-22T12:16:55;99069.34;;;18.84;100.00
13422;BME280;6782;55.904;13.396;2023-07-22T12:19:52;99707.56;;;18.51;100.00
13422;BME280;6782;55.904;13.396;2023-07-22T12:22:40;100011.06;;;18.38;100.00
13422;BME280;6782;55.904;13.396;2023-07-22T12:25:32;100078.84;;;18.08;100.00
13422;BME280;6782;55.904;13.396;2023-07-22T12:28:19;100202.81;;;18.31;100.00
13422;BME280;6782;55.904;13.396;2023-07-22T12:31:06;100178.69;;;18.33;100.00
13422;BME280;6782;55.904;13.396;2023-07-22T12:33:55;100272.22;;;19.00;100.00
13422;BME280;6782;55.904;13.396;2023-07-22T12:36:43;100063.13;;;18.84;100.00
13422;BME280;6782;55.904;13.396;2023-07-22T12:39:30;99995.91;;;19.41;100.00
13422;BME280;6782;55.904;13.396;2023-07-22T12:42:20;99779.81;;;19.46;100.00
13422;BME280;6782;55.904;13.396;2023-07-22T12:45:08;99575.38;;;19.72;100.00
13422;BME280;6782;55.904;13.396;2023-07-22T12:47:56;99481.81;;;19.92;100.00
13422;BME280;6782;55.904;13.396;2023-07-22T12:50:43;99162.97;;;19.97;100.00
13422;BME280;6782;55.904;13.396;2023-07-22T12:53:33;98760.50;;;19.71;100.00
13422;BME280;6782;55.904;13.396;2023-07-22T12:56:21;98722.66;;;20.68;100.00
13422;BME280;6782;55.904;13.396;2023-07-22T12:59:10;98669.50;;;21.18;100.00
13422;BME280;6782;55.904;13.396;2023-07-22T13:01:57;98444.09;;;21.37;100.00
13422;BME280;6782;55.904;13.396;2023-07-22T13:04:45;98111.94;;;21.50;100.00
13422;BME280;6782;55.904;13.396;2023-07-22T13:07:32;98035.56;;;21.38;100.00
13422;BME280;6782;55.904;13.396;2023-07-22T13:10:19;97374.72;;;21.05;100.00
13422;BME280;6782;55.904;13.396;2023-07-22T13:13:08;97607.59;;;21.37;100.00
13422;BME280;6782;55.904;13.396;2023-07-22T13:15:58;97412.56;;;21.10;97.20
13422;BME280;6782;55.904;13.396;2023-07-22T13:18:45;97812.41;;;21.28;100.00
13422;BME280;6782;55.904;13.396;2023-07-22T13:21:33;97634.09;;;20.79;100.00
13422;BME280;6782;55.904;13.396;2023-07-22T13:24:21;97562.13;;;20.45;99.95
13422;BME280;6782;55.904;13.396;2023-07-22T13:27:08;97434.25;;;19.55;100.00
13422;BME280;6782;55.904;13.396;2023-07-22T13:29:55;98034.72;;;19.56;100.00
13422;BME280;6782;55.904;13.396;2023-07-22T13:32:44;98004.78;;;19.34;100.00
13422;BME280;6782;55.904;13.396;2023-07-22T13:35:32;97908.41;;;19.28;100.00
13422;BME280;6782;55.904;13.396;2023-07-22T13:38:19;97991.16;;;19.38;100.00
13422;BME280;6782;55.904;13.396;2023-07-22T13:41:06;97910.00;;;19.39;100.00
13422;BME280;6782;55.904;13.396;2023-07-22T13:43:53;97839.91;;;19.27;100.00
13422;BME280;6782;55.904;13.396;2023-07-22T13:46:40;97903.44;;;19.67;100.00
13422;BME280;6782;55.904;13.396;2023-07-22T13:49:29;98135.41;;;19.73;100.00
13422;BME280;6782;55.904;13.396;2023-07-22T13:52:16;98075.91;;;19.45;100.00
13422;BME280;6782;55.904;13.396;2023-07-22T13:55:04;98265.22;;;19.85;100.00
13422;BME280;6782;55.904;13.396;2023-07-22T13:57:51;98382.38;;;19.81;100.00
13422;BME280;6782;55.904;13.396;2023-07-22T14:00:39;98208.03;;;19.86;100.00
13422;BME280;6782;55.904;13.396;2023-07-22T14:03:26;97961.31;;;19.50;81.92
13422;BME280;6782;55.904;13.396;2023-07-22T14:06:15;98078.75;;;19.44;100.00
13422;BME280;6782;55.904;13.396;2023-07-22T14:09:03;98157.91;;;19.45;100.00
13422;BME280;6782;55.904;13.396;2023-07-22T14:11:50;98361.34;;;19.69;100.00
13422;BME280;6782;55.904;13.396;2023-07-22T14:14:37;98388.66;;;19.90;100.00
13422;BME280;6782;55.904;13.396;2023-07-22T14:17:24;98898.41;;;20.98;100.00
13422;BME280;6782;55.904;13.396;2023-07-22T14:20:12;97929.03;;;20.59;100.00
13422;BME280;6782;55.904;13.396;2023-07-22T14:23:01;97689.31;;;20.41;97.14
13422;BME280;6782;55.904;13.396;2023-07-22T14:25:49;97656.03;;;20.11;97.09
13422;BME280;6782;55.904;13.396;2023-07-22T14:28:36;98018.91;;;20.62;98.55
13422;BME280;6782;55.904;13.396;2023-07-22T14:31:23;97712.94;;;19.97;98.00
13422;BME280;6782;55.904;13.396;2023-07-22T14:34:11;98076.22;;;19.68;100.00